createdAt,value
2019-04-23T00:04:00.943Z,30.82
2019-04-23T00:06:33.790Z,30.81
2019-04-23T00:09:19.169Z,31.14
2019-04-23T00:14:11.544Z,31.14
2019-04-23T00:16:42.554Z,31.26
2019-04-23T00:19:12.022Z,30.67
2019-04-23T00:21:55.143Z,31.29
2019-04-23T00:24:46.659Z,31.40
2019-04-23T00:27:17.326Z,31.36
2019-04-23T00:29:37.421Z,31.54
2019-04-23T00:32:10.367Z,31.90
2019-04-23T00:34:42.668Z,32.79
2019-04-23T00:37:18.727Z,32.20
2019-04-23T00:39:42.368Z,32.45
2019-04-23T00:42:17.142Z,31.91
2019-04-23T00:44:47.808Z,32.39
2019-04-23T00:47:22.829Z,32.15
2019-04-23T00:49:50.898Z,31.87
2019-04-23T00:52:22.149Z,32.19
2019-04-23T00:54:57.973Z,32.26
2019-04-23T00:57:25.831Z,32.58
2019-04-23T01:00:03.448Z,32.40
2019-04-23T01:02:26.345Z,33.47
2019-04-23T01:04:59.672Z,32.66
2019-04-23T01:07:28.574Z,32.81
2019-04-23T01:12:37.733Z,33.10
2019-04-23T01:15:15.715Z,33.23
2019-04-23T01:17:39.546Z,33.15
2019-04-23T01:20:14.180Z,34.12
2019-04-23T01:22:25.641Z,33.29
2019-04-23T01:25:07.280Z,33.61
2019-04-23T01:27:55.893Z,33.43
2019-04-23T01:30:41.094Z,33.25
2019-04-23T01:32:54.633Z,33.63
2019-04-23T01:35:28.350Z,34.99
2019-04-23T01:38:04.808Z,33.68
2019-04-23T01:40:36.856Z,33.65
2019-04-23T01:43:02.753Z,34.45
2019-04-23T01:45:30.730Z,34.90
2019-04-23T01:48:11.087Z,34.24
2019-04-23T01:50:52.132Z,33.94
2019-04-23T01:55:49.794Z,35.60
2019-04-23T01:58:32.231Z,34.36
2019-04-23T02:01:07.177Z,34.51
2019-04-23T02:03:20.866Z,34.50
2019-04-23T02:06:13.337Z,34.41
2019-04-23T02:08:26.246Z,34.23
2019-04-23T02:11:04.828Z,34.11
2019-04-23T02:15:57.284Z,34.60
2019-04-23T02:18:52.855Z,35.09
2019-04-23T02:21:10.612Z,34.18
2019-04-23T02:23:44.311Z,34.43
2019-04-23T02:26:15.192Z,35.32
2019-04-23T02:29:07.584Z,34.92
2019-04-23T02:31:44.531Z,35.93
2019-04-23T02:34:00.498Z,35.42
2019-04-23T02:36:32.258Z,34.66
2019-04-23T02:38:56.148Z,35.06
2019-04-23T02:44:11.481Z,35.42
2019-04-23T02:46:31.712Z,35.66
2019-04-23T02:54:16.052Z,35.66
2019-04-23T02:56:46.301Z,36.10
2019-04-23T02:59:21.864Z,35.55
2019-04-23T03:04:26.532Z,38.46
2019-04-23T03:06:56.449Z,36.01
2019-04-23T03:09:31.660Z,39.13
2019-04-23T03:14:27.146Z,38.40
2019-04-23T03:19:52.323Z,36.35
2019-04-23T03:22:35.117Z,36.47
2019-04-23T03:27:50.004Z,37.44
2019-04-23T03:30:48.249Z,36.59
2019-04-23T03:38:13.946Z,42.89
2019-04-23T03:40:34.865Z,38.17
2019-04-23T03:43:10.488Z,37.79
2019-04-23T03:45:49.170Z,37.51
2019-04-23T03:48:17.751Z,40.83
2019-04-23T03:50:53.722Z,37.06
2019-04-23T03:53:29.920Z,37.74
2019-04-23T03:55:59.581Z,38.39
2019-04-23T03:58:41.394Z,37.60
2019-04-23T04:06:05.515Z,40.96
2019-04-23T04:16:01.309Z,38.45
2019-04-23T04:18:37.827Z,38.94
2019-04-23T04:21:09.626Z,38.14
2019-04-23T04:23:43.474Z,38.65
2019-04-23T04:31:30.885Z,39.87
2019-04-23T04:44:47.363Z,39.19
2019-04-23T04:46:34.567Z,39.04
2019-04-23T04:51:27.103Z,40.93
2019-04-23T04:54:00.909Z,38.42
2019-04-23T04:56:29.303Z,39.80
2019-04-23T04:59:05.254Z,39.60
2019-04-23T05:01:25.477Z,38.60
2019-04-23T05:03:58.251Z,39.16
2019-04-23T05:06:24.770Z,40.51
2019-04-23T05:09:00.675Z,38.67
2019-04-23T05:11:39.015Z,39.13
2019-04-23T05:14:08.136Z,39.82
2019-04-23T05:16:35.613Z,38.91
2019-04-23T05:19:19.805Z,38.86
2019-04-23T05:21:46.887Z,38.96
2019-04-23T05:24:08.560Z,42.88
2019-04-23T05:26:53.619Z,40.85
2019-04-23T05:29:29.112Z,40.55
2019-04-23T05:31:32.863Z,40.67
2019-04-23T05:34:10.015Z,44.48
2019-04-23T05:36:45.415Z,40.67
2019-04-23T05:39:20.849Z,39.68
2019-04-23T05:41:45.284Z,41.17
2019-04-23T05:44:21.100Z,40.96
2019-04-23T05:47:11.496Z,39.78
2019-04-23T05:49:43.084Z,39.57
2019-04-23T05:51:57.358Z,40.05
2019-04-23T05:54:26.623Z,39.96
2019-04-23T05:56:55.257Z,39.63
2019-04-23T05:59:33.047Z,39.78
2019-04-23T06:02:05.174Z,41.48
2019-04-23T06:07:16.993Z,39.91
2019-04-23T06:09:53.163Z,40.05
2019-04-23T06:12:18.785Z,40.03
2019-04-23T06:14:48.242Z,40.09
2019-04-23T06:19:45.405Z,39.53
2019-04-23T06:24:45.072Z,38.51
2019-04-23T06:27:21.740Z,38.47
2019-04-23T06:29:43.134Z,38.17
2019-04-23T06:32:22.253Z,37.87
2019-04-23T06:34:54.998Z,38.61
2019-04-23T06:37:27.692Z,38.83
2019-04-23T06:39:55.149Z,38.85
2019-04-23T06:42:23.502Z,39.21
2019-04-23T06:44:58.440Z,40.26
2019-04-23T06:47:25.991Z,39.96
2019-04-23T06:50:00.093Z,38.98
2019-04-23T06:52:24.846Z,38.81
2019-04-23T06:55:01.077Z,38.50
2019-04-23T06:57:33.579Z,37.51
2019-04-23T07:00:08.405Z,37.22
2019-04-23T07:02:37.663Z,37.54
2019-04-23T07:05:10.374Z,38.37
2019-04-23T07:10:15.819Z,38.43
2019-04-23T07:12:44.809Z,37.82
2019-04-23T07:15:30.952Z,37.70
2019-04-23T07:17:40.616Z,37.29
2019-04-23T07:22:49.969Z,37.50
2019-04-23T07:25:17.707Z,37.87
2019-04-23T07:27:47.640Z,37.50
2019-04-23T07:30:29.950Z,37.50
2019-04-23T07:33:01.172Z,37.48
2019-04-23T07:35:25.725Z,37.71
2019-04-23T07:38:06.108Z,37.69
2019-04-23T07:40:33.565Z,37.60
2019-04-23T07:43:15.560Z,37.15
2019-04-23T07:46:12.243Z,37.05
2019-04-23T07:48:32.550Z,37.59
2019-04-23T07:50:59.005Z,36.76
2019-04-23T07:53:44.051Z,36.99
2019-04-23T07:56:07.562Z,36.73
2019-04-23T07:58:33.183Z,36.96
2019-04-23T08:01:13.815Z,36.71
2019-04-23T08:03:45.125Z,36.93
2019-04-23T08:06:12.090Z,36.81
2019-04-23T08:08:48.802Z,36.74
2019-04-23T08:13:56.983Z,36.52
2019-04-23T08:18:53.846Z,36.02
2019-04-23T08:21:28.564Z,35.94
2019-04-23T08:24:06.619Z,35.94
2019-04-23T08:29:26.759Z,37.69
2019-04-23T08:34:35.773Z,36.08
2019-04-23T08:39:39.788Z,36.28
2019-04-23T08:42:27.102Z,35.23
2019-04-23T08:45:05.087Z,35.37
2019-04-23T08:52:16.678Z,34.76
2019-04-23T08:55:02.625Z,34.93
2019-04-23T08:57:21.457Z,34.61
2019-04-23T08:59:53.222Z,34.65
2019-04-23T09:02:31.263Z,35.40
2019-04-23T09:04:54.161Z,34.97
2019-04-23T09:07:29.772Z,34.78
2019-04-23T09:09:57.231Z,34.48
2019-04-23T09:12:28.339Z,34.32
2019-04-23T09:15:04.009Z,34.21
2019-04-23T09:17:34.644Z,34.53
2019-04-23T09:22:34.730Z,34.01
2019-04-23T09:27:36.582Z,34.10
2019-04-23T09:30:07.821Z,35.06
2019-04-23T09:35:24.030Z,33.98
2019-04-23T09:37:59.678Z,33.75
2019-04-23T09:41:08.452Z,33.73
2019-04-23T09:43:27.035Z,33.73
2019-04-23T09:46:17.449Z,33.81
2019-04-23T09:48:50.953Z,33.96
2019-04-23T09:51:17.407Z,33.60
2019-04-23T09:53:40.687Z,33.13
2019-04-23T09:56:14.154Z,33.86
2019-04-23T09:58:59.109Z,33.24
2019-04-23T10:03:52.113Z,33.22
2019-04-23T10:06:16.121Z,33.18
2019-04-23T10:08:46.809Z,32.57
2019-04-23T10:11:12.225Z,32.69
2019-04-23T10:13:44.804Z,32.49
2019-04-23T10:16:17.133Z,32.61
2019-04-23T10:18:47.035Z,33.08
2019-04-23T10:21:17.526Z,32.52
2019-04-23T10:23:47.568Z,32.46
2019-04-23T10:26:17.282Z,32.09
2019-04-23T10:28:49.766Z,32.00
2019-04-23T10:31:21.090Z,32.99
2019-04-23T10:33:52.246Z,32.41
2019-04-23T10:36:25.868Z,32.68
2019-04-23T10:39:00.594Z,32.09
2019-04-23T10:41:25.771Z,31.21
2019-04-23T10:44:00.752Z,31.37
2019-04-23T10:46:53.621Z,30.58
2019-04-23T10:54:48.525Z,30.40
2019-04-23T10:59:47.332Z,30.36
2019-04-23T11:17:52.047Z,28.62
2019-04-23T11:20:25.826Z,29.21
2019-04-23T11:22:48.130Z,29.21
2019-04-23T11:25:31.288Z,29.90
2019-04-23T11:27:52.413Z,29.46
2019-04-23T11:30:36.500Z,29.13
2019-04-23T11:33:02.755Z,28.77
2019-04-23T11:35:31.300Z,28.81
2019-04-23T11:40:25.517Z,28.79
2019-04-23T11:43:09.712Z,29.22
2019-04-23T11:51:15.839Z,28.67
2019-04-23T11:51:15.839Z,28.32
2019-04-23T11:53:18.436Z,28.70
2019-04-23T11:55:48.689Z,28.52
2019-04-23T12:01:02.471Z,28.62
2019-04-23T12:03:19.649Z,28.44
2019-04-23T12:06:12.076Z,27.76
2019-04-23T12:08:44.710Z,27.58
2019-04-23T12:11:50.247Z,27.65
2019-04-23T12:14:15.999Z,26.96
2019-04-23T12:16:45.029Z,27.08
2019-04-23T12:19:28.033Z,27.31
2019-04-23T12:21:44.003Z,26.84
2019-04-23T12:24:16.267Z,27.24
2019-04-23T12:26:44.406Z,27.47
2019-04-23T12:29:25.619Z,26.58
2019-04-23T12:31:47.749Z,26.67
2019-04-23T12:34:20.646Z,26.77
2019-04-23T12:39:23.189Z,26.56
2019-04-23T12:41:54.608Z,26.39
2019-04-23T12:44:22.069Z,26.58
2019-04-23T12:46:57.545Z,26.76
2019-04-23T12:49:44.606Z,26.26
2019-04-23T12:52:02.789Z,26.25
2019-04-23T12:54:41.262Z,27.00
2019-04-23T12:57:04.821Z,26.61
2019-04-23T12:59:36.812Z,26.33
2019-04-23T13:02:19.889Z,26.68
2019-04-23T13:04:43.930Z,26.72
2019-04-23T13:07:09.064Z,26.81
2019-04-23T13:09:54.103Z,27.18
2019-04-23T13:12:32.832Z,27.15
2019-04-23T13:14:56.793Z,26.49
2019-04-23T13:17:48.953Z,26.92
2019-04-23T13:22:31.541Z,25.96
2019-04-23T13:25:09.265Z,25.44
2019-04-23T13:27:55.586Z,25.81
2019-04-23T13:30:23.173Z,24.99
2019-04-23T13:32:55.303Z,24.98
2019-04-23T13:37:59.320Z,24.10
2019-04-23T13:40:27.733Z,23.49
2019-04-23T13:43:01.002Z,23.37
2019-04-23T13:45:53.031Z,23.24
2019-04-23T13:48:03.493Z,22.92
2019-04-23T13:50:47.798Z,22.23
2019-04-23T13:55:30.315Z,19.84
2019-04-23T14:03:17.609Z,20.04
2019-04-23T14:06:10.710Z,20.64
2019-04-23T14:08:30.601Z,20.65
2019-04-23T14:11:02.273Z,21.07
2019-04-23T14:13:37.284Z,21.39
2019-04-23T14:16:04.658Z,21.80
2019-04-23T14:18:53.973Z,21.52
2019-04-23T14:21:08.632Z,22.64
2019-04-23T14:23:52.474Z,22.35
2019-04-23T14:33:46.899Z,22.57
2019-04-23T14:36:17.730Z,22.11
2019-04-23T14:38:45.818Z,22.17
2019-04-23T14:46:41.404Z,23.06
2019-04-23T14:48:52.114Z,23.21
2019-04-23T14:53:48.338Z,24.10
2019-04-23T14:56:23.904Z,24.20
2019-04-23T14:59:07.372Z,24.75
2019-04-23T15:03:57.540Z,25.34
2019-04-23T15:09:19.666Z,26.07
2019-04-23T15:14:06.566Z,26.61
2019-04-23T15:16:39.146Z,26.98
2019-04-23T15:29:01.390Z,27.90
2019-04-23T15:31:55.457Z,27.63
2019-04-23T15:42:00.823Z,28.26
2019-04-23T15:44:16.361Z,28.23
2019-04-23T15:46:57.206Z,28.33
2019-04-23T15:49:29.782Z,29.42
2019-04-23T15:51:56.707Z,28.30
2019-04-23T15:54:35.402Z,28.78
2019-04-23T15:57:05.855Z,28.56
2019-04-23T16:01:41.848Z,28.53
2019-04-23T16:04:08.758Z,28.47
2019-04-23T16:06:38.929Z,28.51
2019-04-23T16:09:36.176Z,28.62
2019-04-23T16:12:06.212Z,29.01
2019-04-23T16:14:49.411Z,29.03
2019-04-23T16:17:24.025Z,29.42
2019-04-23T16:20:19.108Z,29.26
2019-04-23T16:22:36.731Z,29.63
2019-04-23T16:27:34.936Z,29.57
2019-04-23T16:30:17.384Z,29.99
2019-04-23T16:32:54.298Z,30.33
2019-04-23T16:35:28.276Z,30.07
2019-04-23T16:38:01.411Z,30.14
2019-04-23T16:42:59.694Z,30.73
2019-04-23T16:45:29.380Z,30.68
2019-04-23T16:47:56.575Z,30.67
2019-04-23T16:50:30.977Z,30.64
2019-04-23T16:53:03.961Z,31.39
2019-04-23T16:55:30.578Z,31.00
2019-04-23T16:58:23.157Z,31.32
2019-04-23T17:00:43.740Z,31.16
2019-04-23T17:03:19.378Z,31.44
2019-04-23T17:05:39.318Z,31.64
2019-04-23T17:08:35.831Z,31.35
2019-04-23T17:10:45.760Z,31.85
2019-04-23T17:13:24.037Z,31.85
2019-04-23T17:18:24.546Z,31.96
2019-04-23T17:20:52.832Z,32.33
2019-04-23T17:23:34.589Z,32.56
2019-04-23T17:25:55.640Z,32.37
2019-04-23T17:31:26.338Z,33.18
2019-04-23T17:33:51.902Z,33.12
2019-04-23T17:36:26.625Z,33.74
2019-04-23T17:41:41.706Z,34.14
2019-04-23T17:44:18.898Z,34.19
2019-04-23T17:46:43.178Z,34.26
2019-04-23T17:49:10.821Z,34.35
2019-04-23T17:51:42.622Z,34.42
2019-04-23T17:56:54.141Z,35.19
2019-04-23T18:01:59.225Z,35.47
2019-04-23T18:04:30.746Z,34.99
2019-04-23T18:06:52.368Z,35.08
2019-04-23T18:09:32.793Z,35.87
2019-04-23T18:11:54.347Z,35.33
2019-04-23T18:14:16.551Z,35.28
2019-04-23T18:16:57.526Z,35.46
2019-04-23T18:19:24.528Z,36.66
2019-04-23T18:24:59.369Z,36.97
2019-04-23T18:27:26.250Z,36.78
2019-04-23T18:30:09.943Z,36.73
2019-04-23T18:32:43.412Z,36.64
2019-04-23T18:40:05.197Z,38.45
2019-04-23T18:42:46.414Z,38.26
2019-04-23T18:45:24.472Z,38.30
2019-04-23T18:47:51.921Z,38.72
2019-04-23T18:50:26.884Z,40.58
2019-04-23T18:55:41.236Z,40.00
2019-04-23T18:57:51.883Z,40.08
2019-04-23T19:00:37.280Z,39.29
2019-04-23T19:03:11.934Z,39.53
2019-04-23T19:06:10.485Z,40.23
2019-04-23T19:08:52.096Z,40.33
2019-04-23T19:11:09.162Z,40.58
2019-04-23T19:13:32.892Z,40.58
2019-04-23T19:16:04.028Z,41.35
2019-04-23T19:18:43.093Z,41.35
2019-04-23T19:23:46.913Z,41.87
2019-04-23T19:26:27.441Z,42.61
2019-04-23T19:28:52.961Z,42.34
2019-04-23T19:34:21.329Z,43.72
2019-04-23T19:36:52.576Z,43.87
2019-04-23T19:39:19.312Z,44.33
2019-04-23T19:44:31.348Z,44.81
2019-04-23T19:46:56.174Z,44.25
2019-04-23T19:49:19.686Z,44.45
2019-04-23T19:54:25.989Z,45.36
2019-04-23T19:57:04.743Z,45.54
2019-04-23T19:59:23.440Z,45.67
2019-04-23T20:04:32.183Z,45.35
2019-04-23T20:14:41.659Z,45.47
2019-04-23T20:22:06.207Z,46.27
2019-04-23T20:24:55.473Z,45.79
2019-04-23T20:27:06.203Z,46.46
2019-04-23T20:35:00.390Z,46.06
2019-04-23T20:37:44.579Z,47.96
2019-04-23T20:39:58.265Z,45.34
2019-04-23T20:42:27.178Z,45.73
2019-04-23T20:45:02.591Z,46.25
2019-04-23T20:47:32.620Z,46.29
2019-04-23T20:50:03.418Z,47.20
2019-04-23T20:52:29.243Z,45.92
2019-04-23T20:57:45.444Z,45.31
2019-04-23T21:00:20.545Z,46.11
2019-04-23T21:03:30.442Z,44.11
2019-04-23T21:05:27.684Z,44.36
2019-04-23T21:08:28.398Z,44.41
2019-04-23T21:10:42.965Z,43.54
2019-04-23T21:13:15.768Z,43.43
2019-04-23T21:20:55.040Z,42.95
2019-04-23T21:23:29.916Z,42.24
2019-04-23T21:31:06.355Z,42.67
2019-04-23T21:33:35.386Z,45.05
2019-04-23T21:36:13.955Z,42.25
2019-04-23T21:51:38.400Z,43.23
2019-04-23T21:53:55.519Z,43.22
2019-04-23T21:56:35.380Z,42.03
2019-04-23T22:01:36.702Z,41.76
2019-04-23T22:06:43.337Z,41.44
2019-04-23T22:09:12.391Z,42.17
2019-04-23T22:19:20.257Z,41.64
2019-04-23T22:21:47.485Z,40.84
2019-04-23T22:31:47.380Z,41.01
2019-04-23T22:34:22.010Z,41.57
2019-04-23T22:36:56.278Z,41.23
2019-04-23T22:39:25.374Z,41.50
2019-04-23T22:41:55.864Z,42.03
2019-04-23T22:44:34.063Z,42.01
2019-04-23T22:47:02.221Z,42.61
2019-04-23T22:49:57.229Z,43.38
2019-04-23T22:54:39.801Z,43.22
2019-04-23T22:57:26.172Z,42.93
2019-04-23T22:59:48.524Z,43.02
2019-04-23T23:02:36.649Z,42.62
2019-04-23T23:05:09.923Z,42.95
2019-04-23T23:07:39.661Z,43.31
2019-04-23T23:10:08.439Z,42.28
2019-04-23T23:12:55.966Z,41.71
2019-04-23T23:17:54.604Z,41.90
2019-04-23T23:22:52.283Z,42.03
2019-04-23T23:25:20.563Z,43.44
2019-04-23T23:27:54.258Z,42.05
2019-04-23T23:30:23.398Z,42.34
2019-04-23T23:32:55.580Z,42.40
2019-04-23T23:35:22.337Z,42.49
2019-04-23T23:37:56.540Z,43.68
2019-04-23T23:40:25.527Z,43.40
2019-04-23T23:43:05.773Z,42.58
2019-04-23T23:45:31.405Z,44.37
2019-04-23T23:55:27.868Z,44.05
2019-04-23T23:58:10.744Z,43.23
